Latest Weather Observations for Stenhouse Bay

IDS60801

Issued at 8:21 pm CST Thursday 24 September 2020 (issued every 10 minutes, with the page automatically refreshed every 10 minutes)

About weather observations | Map of weather stations | Latest weather observations for SA | Other Formats
Station Details ID: 022049 Name: STENHOUSE BAY Lat: -35.28 Lon: 136.94 Height: 42.0 m
Data from the previous 72 hours. | See also: Recent months at Stenhouse Bay
Date/Time
CST
Temp
°C
App
Temp
°C
Dew
Point
°C
Rel
Hum
%
Delta-T
°C
Wind Press
QNH
hPa
Press
MSL
hPa
Rain since
9am
mm
Dir  Spd
km/h
Gust
km/h
Spd
kts
Gust
kts
24/08:00pm 8.5 3.4 4.3 75 1.8 SSW 20 32 11 17 1010.0 1009.9 3.8
24/07:30pm 8.7 -0.4 4.1 73 2.0 SSW 41 59 22 32 1010.0 1009.9 3.8
24/07:23pm 8.9 0.5 3.9 71 2.2 SW 37 57 20 31 1009.8 1009.7 3.8
24/07:20pm 9.7 2.1 4.1 68 2.5 SW 33 57 18 31 1009.8 1009.7 3.8
24/07:00pm 9.2 2.1 3.6 68 2.4 WSW 30 39 16 21 1009.5 1009.4 3.8
24/06:30pm 8.4 2.3 5.0 79 1.5 SW 26 37 14 20 1009.8 1009.7 3.8
24/06:05pm 8.3 -1.5 5.1 80 1.4 SW 46 67 25 36 1009.8 1009.7 3.6
24/06:00pm 8.7 0.5 4.5 75 1.9 WSW 37 67 20 36 1009.6 1009.5 3.4
24/05:57pm 9.9 3.6 5.5 74 2.0 WSW 28 63 15 34 1009.6 1009.5 3.4
24/05:30pm 9.5 2.5 5.9 78 1.7 SW 32 46 17 25 1009.5 1009.4 3.4
24/05:00pm 10.3 1.9 5.5 72 2.2 SW 39 54 21 29 1009.6 1009.5 3.0
24/04:32pm 10.2 2.6 5.6 73 2.1 SW 35 54 19 29 1009.6 1009.5 2.8
24/04:30pm 10.3 2.6 5.5 72 2.2 WSW 35 54 19 29 1009.5 1009.4 2.8
24/04:25pm 10.8 4.2 6.0 72 2.2 WSW 30 48 16 26 1009.5 1009.4 2.8
24/04:00pm 9.4 4.7 5.9 79 1.6 W 20 28 11 15 1009.8 1009.7 2.8
24/03:34pm 11.1 4.3 5.0 66 2.8 WSW 30 50 16 27 1009.9 1009.8 2.6
24/03:30pm 11.2 4.9 5.5 68 2.6 WSW 28 44 15 24 1009.9 1009.8 2.6
24/03:00pm 9.1 1.0 5.1 76 1.8 WSW 37 65 20 35 1010.1 1010.0 2.6
24/02:30pm 9.6 1.3 6.0 78 1.7 WSW 39 61 21 33 1010.5 1010.4 2.6
24/02:04pm 12.4 4.8 5.6 63 3.2 WSW 35 54 19 29 1010.3 1010.2 2.2
24/02:00pm 12.2 3.6 4.9 61 3.4 WSW 39 56 21 30 1010.3 1010.2 2.2
24/01:47pm 13.7 6.7 6.8 63 3.3 WSW 33 52 18 28 1010.4 1010.3 2.2
24/01:30pm 13.2 5.2 5.9 61 3.5 WSW 37 52 20 28 1010.5 1010.4 2.2
24/01:22pm 14.0 8.0 7.1 63 3.4 WSW 28 50 15 27 1010.6 1010.5 2.2
24/01:00pm 13.3 6.9 8.6 73 2.4 WSW 32 46 17 25 1011.0 1010.9 2.2
24/12:30pm 12.7 7.4 8.6 76 2.0 WSW 26 41 14 22 1011.5 1011.4 2.2
24/12:00pm 11.4 7.0 9.1 86 1.2 W 22 35 12 19 1011.9 1011.9 2.2
24/11:34am 10.8 5.2 8.6 86 1.1 WNW 28 48 15 26 1012.4 1012.4 2.2
24/11:30am 10.8 4.7 8.4 85 1.2 WNW 30 46 16 25 1012.5 1012.5 2.2
24/11:00am 12.0 7.0 9.7 86 1.2 WNW 26 44 14 24 1012.9 1012.9 1.2
24/10:30am 11.7 4.7 6.8 72 2.3 WNW 33 50 18 27 1013.6 1013.6 0.2
24/10:00am 13.2 6.3 6.5 64 3.2 NW 32 46 17 25 1013.8 1013.8 0.0
24/09:30am 13.3 6.6 7.5 68 2.8 NW 32 44 17 24 1014.4 1014.4 0.0
24/09:00am 12.9 7.4 6.0 63 3.3 WNW 24 33 13 18 1014.7 1014.7 1.0
24/08:30am 12.5 7.5 6.5 67 2.9 WNW 22 37 12 20 1015.2 1015.2 1.0
24/08:00am 11.5 7.1 6.6 72 2.3 WNW 19 30 10 16 1015.5 1015.5 1.0
24/07:30am 11.0 6.6 6.4 73 2.2 WNW 19 28 10 15 1015.7 1015.7 1.0
24/07:00am 10.6 6.2 6.7 77 1.8 WNW 19 28 10 15 1015.8 1015.8 1.0
24/06:30am 8.8 5.4 5.9 82 1.3 W 13 17 7 9 1016.0 1016.0 1.0
24/06:00am 9.6 6.0 5.2 74 2.0 W 13 20 7 11 1016.0 1016.0 0.4
24/05:30am 10.1 5.4 6.1 76 1.9 WSW 20 33 11 18 1016.0 1016.0 0.4
24/05:00am 9.4 6.3 5.6 77 1.7 W 11 15 6 8 1016.2 1016.2 0.4
24/04:30am 10.2 5.5 6.2 76 1.9 WNW 20 28 11 15 1016.5 1016.5 0.4
24/04:00am 10.0 5.9 6.2 77 1.8 W 17 24 9 13 1016.7 1016.7 0.4
24/03:30am 10.0 5.1 5.0 71 2.3 W 20 32 11 17 1017.0 1017.0 0.4
24/03:00am 9.9 5.7 5.9 76 1.8 WSW 17 22 9 12 1017.2 1017.2 0.4
24/02:30am 9.1 5.9 4.9 75 1.9 WSW 11 15 6 8 1017.6 1017.6 0.4
24/02:00am 9.5 5.6 5.3 75 1.9 WSW 15 22 8 12 1018.1 1018.1 0.4
24/01:30am 10.2 5.8 6.4 77 1.8 WSW 19 26 10 14 1018.5 1018.5 0.4
24/01:00am 9.2 5.5 6.1 81 1.4 WSW 15 22 8 12 1018.9 1018.9 0.4
24/12:30am 9.9 5.7 7.3 84 1.2 WSW 19 24 10 13 1019.3 1019.3 0.4
24/12:00am 10.2 6.9 8.0 86 1.1 SW 15 24 8 13 1019.5 1019.5 0.4
 
Date/Time
CST
Temp
°C
App
Temp
°C
Dew
Point
°C
Rel
Hum
%
Delta-T
°C
Wind Press
QNH
hPa
Press
MSL
hPa
Rain since
9am
mm
Dir  Spd
km/h
Gust
km/h
Spd
kts
Gust
kts
23/11:30pm 9.6 6.5 7.4 86 1.0 WSW 13 19 7 10 1020.0 1020.0 0.4
23/11:00pm 8.6 5.1 5.5 81 1.4 W 13 15 7 8 1020.1 1020.1 0.0
23/10:30pm 9.2 6.2 5.8 79 1.5 WSW 11 15 6 8 1020.4 1020.4 0.0
23/10:00pm 10.1 4.7 6.4 78 1.7 SW 24 35 13 19 1020.8 1020.8 0.0
23/09:30pm 11.7 7.0 5.1 64 3.0 SW 19 26 10 14 1021.0 1021.0 0.0
23/09:00pm 11.8 6.5 5.0 63 3.1 SW 22 35 12 19 1021.0 1021.0 0.0
23/08:30pm 11.9 7.0 5.3 64 3.0 SW 20 33 11 18 1021.0 1021.0 0.0
23/08:00pm 11.9 6.5 4.6 61 3.3 SW 22 32 12 17 1020.9 1020.9 0.0
23/07:30pm 11.9 6.5 4.6 61 3.3 SW 22 35 12 19 1020.8 1020.8 0.0
23/07:00pm 11.7 5.5 4.2 60 3.4 SW 26 35 14 19 1020.5 1020.5 0.0
23/06:30pm 11.8 5.2 4.3 60 3.4 SW 28 39 15 21 1020.3 1020.3 0.0
23/06:00pm 12.1 5.6 4.6 60 3.4 SW 28 37 15 20 1020.3 1020.3 0.0
23/05:30pm 12.2 5.7 4.9 61 3.3 SW 28 37 15 20 1020.2 1020.2 0.0
23/05:00pm 12.7 5.8 4.7 58 3.7 SW 30 39 16 21 1020.0 1020.0 0.0
23/04:30pm 13.6 7.6 5.3 57 3.9 SW 26 41 14 22 1019.8 1019.8 0.0
23/04:00pm 13.9 7.5 5.3 56 4.0 SW 28 39 15 21 1019.8 1019.8 0.0
23/03:30pm 13.9 7.5 5.3 56 4.0 SW 28 39 15 21 1019.7 1019.7 0.0
23/03:00pm 13.5 6.4 5.4 58 3.8 SW 32 43 17 23 1019.7 1019.7 0.0
23/02:30pm 13.7 7.4 5.6 58 3.8 SW 28 39 15 21 1019.7 1019.7 0.0
23/02:00pm 14.4 8.1 5.7 56 4.1 SW 28 39 15 21 1019.6 1019.6 0.0
23/01:30pm 14.7 7.7 6.8 59 3.8 SW 33 44 18 24 1019.9 1019.9 0.0
23/01:00pm 14.2 7.0 6.1 58 3.9 SW 33 46 18 25 1019.9 1019.9 0.0
23/12:30pm 13.9 6.6 5.5 57 3.9 SW 33 48 18 26 1020.0 1020.0 0.0
23/12:00pm 14.0 7.0 6.1 59 3.8 SW 32 46 17 25 1020.0 1020.0 0.0
23/11:30am 13.9 7.4 6.5 61 3.6 SW 30 41 16 22 1020.1 1020.1 0.0
23/11:00am 13.6 6.9 5.7 59 3.7 SW 30 41 16 22 1020.1 1020.1 0.0
23/10:30am 13.5 6.6 6.4 62 3.4 SW 32 43 17 23 1020.1 1020.1 0.0
23/10:00am 13.4 7.2 6.0 61 3.5 SW 28 41 15 22 1019.9 1019.9 0.0
23/09:30am 13.6 6.6 6.2 61 3.5 SW 32 46 17 25 1019.8 1019.8 0.0
23/09:00am 12.9 5.8 6.3 64 3.1 SW 33 46 18 25 1019.5 1019.5 4.4
23/08:30am 12.4 5.6 6.9 69 2.6 SW 32 44 17 24 1019.2 1019.2 4.4
23/08:00am 12.3 5.9 6.8 69 2.6 SW 30 41 16 22 1018.9 1018.9 4.4
23/07:30am 11.3 5.4 7.6 78 1.8 SW 28 35 15 19 1018.6 1018.6 4.4
23/07:12am 11.3 5.5 8.0 80 1.6 SW 28 48 15 26 1018.3 1018.3 4.4
23/07:00am 10.8 5.8 7.9 82 1.4 SW 24 33 13 18 1018.2 1018.2 4.4
23/06:30am 10.4 4.3 8.2 86 1.1 SW 30 39 16 21 1018.0 1018.0 4.4
23/06:11am 11.3 5.5 8.0 80 1.6 SW 28 48 15 26 1017.8 1017.8 3.2
23/06:00am 10.9 4.7 8.0 82 1.4 SW 30 43 16 23 1017.6 1017.6 3.2
23/05:30am 10.2 3.8 7.1 81 1.5 SW 30 46 16 25 1017.3 1017.3 3.2
23/05:00am 10.9 5.1 7.8 81 1.5 SW 28 39 15 21 1016.9 1016.9 2.8
23/04:31am 10.9 5.1 7.8 81 1.5 SW 28 46 15 25 1016.6 1016.6 2.6
23/04:30am 11.1 5.7 8.0 81 1.5 SW 26 44 14 24 1016.7 1016.7 2.6
23/04:00am 10.6 5.7 7.1 79 1.7 WSW 22 33 12 18 1016.6 1016.6 2.6
23/03:30am 10.7 5.6 7.6 81 1.5 WSW 24 37 13 20 1016.5 1016.5 2.6
23/03:00am 10.4 3.7 7.5 82 1.4 SW 32 44 17 24 1016.6 1016.6 2.6
23/02:30am 10.2 4.3 7.6 84 1.2 WSW 28 37 15 20 1016.6 1016.6 2.6
23/02:00am 10.2 6.0 8.3 88 0.9 W 20 30 11 16 1016.7 1016.7 2.6
23/01:30am 10.1 6.1 8.4 89 0.8 W 19 28 10 15 1016.7 1016.7 2.2
23/01:00am 10.1 5.1 8.0 87 1.0 WSW 24 41 13 22 1016.8 1016.8 2.0
23/12:30am 10.1 4.6 7.5 84 1.2 WSW 26 35 14 19 1016.9 1016.9 1.2
23/12:00am 10.9 5.5 8.1 83 1.4 WSW 26 41 14 22 1016.8 1016.8 1.0
 
Date/Time
CST
Temp
°C
App
Temp
°C
Dew
Point
°C
Rel
Hum
%
Delta-T
°C
Wind Press
QNH
hPa
Press
MSL
hPa
Rain since
9am
mm
Dir  Spd
km/h
Gust
km/h
Spd
kts
Gust
kts
22/11:48pm 11.3 5.6 8.2 81 1.5 WSW 28 48 15 26 1016.8 1016.8 0.8
22/11:30pm 11.2 5.3 7.5 78 1.8 WSW 28 39 15 21 1016.7 1016.7 0.8
22/11:00pm 11.0 5.5 7.5 79 1.7 WSW 26 39 14 21 1016.7 1016.7 0.8
22/10:30pm 10.6 5.5 7.8 83 1.4 WSW 24 39 13 21 1016.7 1016.7 0.8
22/10:00pm 10.7 5.7 8.1 84 1.3 WSW 24 41 13 22 1016.8 1016.8 0.6
22/09:30pm 11.8 6.1 8.3 79 1.7 WSW 28 43 15 23 1016.8 1016.8 0.6
22/09:00pm 10.8 6.1 7.9 82 1.4 W 22 32 12 17 1016.7 1016.7 0.4
22/08:30pm 11.7 6.3 8.0 78 1.8 W 26 39 14 21 1016.4 1016.4 0.4
22/08:00pm 11.4 7.4 8.1 80 1.6 W 19 28 10 15 1016.1 1016.1 0.4
22/07:30pm 11.0 5.9 7.5 79 1.7 WSW 24 43 13 23 1015.7 1015.7 0.4
22/07:00pm 12.1 7.0 7.8 75 2.1 W 24 41 13 22 1015.4 1015.4 0.2
22/06:30pm 11.5 6.4 7.6 77 1.9 W 24 33 13 18 1015.1 1015.1 0.2
22/06:00pm 11.9 6.4 7.4 74 2.2 W 26 39 14 21 1014.8 1014.8 0.2
22/05:30pm 12.3 6.3 8.6 78 1.8 WSW 30 41 16 22 1014.5 1014.5 0.2
22/05:00pm 12.6 7.9 9.4 81 1.6 W 24 33 13 18 1014.3 1014.3 0.2
22/04:30pm 11.9 7.0 8.6 80 1.6 W 24 35 13 19 1014.0 1014.0 0.0
22/04:11pm 13.8 7.5 7.3 65 3.2 W 30 48 16 26 1013.7 1013.7 0.0
22/04:00pm 14.3 7.4 7.4 63 3.4 W 33 48 18 26 1013.6 1013.6 0.0
22/03:30pm 15.4 8.9 8.9 65 3.3 W 33 44 18 24 1013.5 1013.5 0.0
22/03:17pm 14.9 9.4 9.3 69 2.9 W 28 46 15 25 1013.4 1013.4 0.0
22/03:00pm 15.7 8.9 7.5 58 4.1 W 33 46 18 25 1013.3 1013.3 0.0
22/02:30pm 15.3 8.7 7.8 61 3.8 W 32 50 17 27 1013.1 1013.1 0.0
22/02:29pm 15.6 9.1 8.1 61 3.8 W 32 50 17 27 1013.1 1013.1 0.0
22/02:00pm 16.0 9.3 7.5 57 4.2 W 32 46 17 25 1012.9 1012.9 0.0
22/01:30pm 15.6 8.5 7.9 60 3.9 W 35 48 19 26 1012.8 1012.8 0.0
22/01:04pm 16.0 9.3 8.0 59 4.0 W 33 52 18 28 1012.7 1012.7 0.0
22/01:00pm 15.9 9.3 7.9 59 4.0 W 32 44 17 24 1012.7 1012.7 0.0
22/12:30pm 16.4 10.8 8.6 60 4.0 W 28 43 15 23 1012.7 1012.7 0.0
22/12:00pm 15.0 9.9 9.1 68 3.0 W 26 39 14 21 1012.6 1012.6 0.0
22/11:39am 15.4 9.0 8.6 64 3.5 W 32 50 17 27 1012.5 1012.5 0.0
22/11:30am 15.8 8.8 8.5 62 3.7 WSW 35 46 19 25 1012.4 1012.4 0.0
22/11:00am 15.9 9.3 8.6 62 3.7 W 33 46 18 25 1012.0 1012.0 0.0
22/10:30am 14.6 8.3 8.8 68 2.9 W 32 44 17 24 1011.9 1011.9 0.0
22/10:00am 14.1 7.6 8.3 68 2.9 W 32 48 17 26 1011.7 1011.6 0.0
22/09:30am 12.0 4.6 8.3 78 1.8 W 37 59 20 32 1011.4 1011.3 0.0
22/09:23am 12.6 5.0 7.7 72 2.4 W 37 59 20 32 1011.2 1011.1 0.0
22/09:00am 13.2 7.9 10.0 81 1.7 W 28 44 15 24 1010.9 1010.8 1.8
22/08:37am 12.4 5.8 8.5 77 1.9 W 33 59 18 32 1010.8 1010.7 1.8
22/08:30am 12.2 5.2 8.5 78 1.8 W 35 52 19 28 1010.6 1010.5 1.6
22/08:00am 12.8 5.3 8.1 73 2.3 W 37 56 20 30 1009.8 1009.7 1.6
22/07:30am 13.2 5.9 7.2 67 2.9 W 35 56 19 30 1009.4 1009.3 1.4
22/07:25am 13.2 5.9 7.0 66 3.0 W 35 56 19 30 1009.3 1009.2 1.4
22/07:00am 12.9 6.0 7.4 69 2.7 W 33 50 18 27 1008.9 1008.8 1.4
22/06:38am 12.3 5.6 7.4 72 2.4 W 32 50 17 27 1008.6 1008.5 1.4
22/06:30am 12.2 4.9 7.3 72 2.4 W 35 52 19 28 1008.6 1008.5 1.4
22/06:02am 12.5 4.4 6.8 68 2.7 W 39 57 21 31 1008.2 1008.1 1.4
22/06:00am 12.5 3.9 6.5 67 2.9 W 41 57 22 31 1008.1 1008.0 1.4
22/05:30am 12.4 5.7 7.5 72 2.4 W 32 52 17 28 1007.8 1007.7 1.4
22/05:13am 12.0 4.3 7.3 73 2.3 W 37 56 20 30 1007.5 1007.4 1.4
22/05:00am 11.7 4.0 7.0 73 2.3 W 37 52 20 28 1007.4 1007.3 1.4
22/04:30am 11.2 4.0 7.5 78 1.8 W 35 56 19 30 1007.0 1006.9 1.4
22/04:02am 12.6 4.1 7.1 69 2.7 W 41 59 22 32 1007.0 1006.9 1.2
22/04:00am 12.6 3.7 6.9 68 2.7 W 43 59 23 32 1006.8 1006.7 1.0
22/03:38am 12.2 4.8 6.7 69 2.6 W 35 54 19 29 1006.8 1006.7 1.0
22/03:30am 12.2 4.4 6.7 69 2.6 W 37 56 20 30 1006.7 1006.6 1.0
22/03:02am 12.0 3.8 6.5 69 2.6 W 39 57 21 31 1006.7 1006.6 1.0
22/03:00am 12.0 3.4 6.3 68 2.7 W 41 57 22 31 1006.7 1006.6 1.0
22/02:41am 12.3 4.4 6.1 66 2.9 W 37 57 20 31 1006.7 1006.6 1.0
22/02:30am 12.3 4.0 6.1 66 2.9 W 39 56 21 30 1006.6 1006.5 1.0
22/02:00am 12.7 4.0 6.1 64 3.1 W 41 61 22 33 1006.5 1006.4 1.0
22/01:33am 12.2 5.4 6.7 69 2.6 WNW 32 52 17 28 1006.7 1006.6 1.0
22/01:30am 12.3 6.0 7.2 71 2.5 WNW 30 43 16 23 1006.9 1006.8 1.0
22/01:00am 12.9 5.0 6.3 64 3.1 W 37 57 20 31 1006.8 1006.7 1.0
22/12:30am 12.8 4.0 5.7 62 3.3 W 41 61 22 33 1006.9 1006.8 1.0
22/12:00am 12.7 4.1 6.3 65 3.1 W 41 61 22 33 1006.9 1006.8 1.0
 
Date/Time
CST
Temp
°C
App
Temp
°C
Dew
Point
°C
Rel
Hum
%
Delta-T
°C
Wind Press
QNH
hPa
Press
MSL
hPa
Rain since
9am
mm
Dir  Spd
km/h
Gust
km/h
Spd
kts
Gust
kts
21/11:33pm 12.7 5.3 6.7 67 2.9 WNW 35 56 19 30 1006.9 1006.8 1.0
21/11:30pm 12.8 5.1 7.0 68 2.8 WNW 37 56 20 30 1006.9 1006.8 1.0
21/11:01pm 12.5 5.2 7.0 69 2.7 WNW 35 57 19 31 1006.9 1006.8 1.0
21/11:00pm 12.6 5.3 7.1 69 2.7 WNW 35 50 19 27 1006.9 1006.8 1.0
21/10:48pm 12.3 5.3 6.8 69 2.6 WNW 33 57 18 31 1007.0 1006.9 1.0
21/10:30pm 12.3 5.4 7.4 72 2.4 WNW 33 52 18 28 1007.0 1006.9 1.0
21/10:07pm 12.4 5.6 7.1 70 2.6 W 32 50 17 27 1007.0 1006.9 1.0
21/10:00pm 12.3 5.4 7.2 71 2.5 W 33 46 18 25 1007.0 1006.9 1.0
21/09:30pm 10.9 2.8 7.0 77 1.9 WNW 39 69 21 37 1007.0 1006.9 1.0
21/09:24pm 12.8 5.4 6.8 67 2.9 WNW 35 69 19 37 1007.2 1007.1 1.0
21/09:00pm 12.6 5.7 6.6 67 2.9 W 32 50 17 27 1006.9 1006.8 0.8
21/08:40pm 12.5 5.4 6.3 66 2.9 W 33 52 18 28 1006.6 1006.5 0.8
21/08:30pm 12.5 5.0 6.1 65 3.0 W 35 50 19 27 1006.4 1006.3 0.8
21/08:22pm 12.3 6.5 7.8 74 2.2 W 28 50 15 27 1006.4 1006.3 0.8

Other formats

Comma delimited format used in spreadsheet applications
http://www.bom.gov.au/fwo/IDS60801/IDS60801.95806.axf

JavaScript Object Notation format (JSON) in row-major order
http://www.bom.gov.au/fwo/IDS60801/IDS60801.95806.json

Data quality

Most of these data are generated automatically and are frequently updated. Quality checks on data are not normally performed. It is possible for incorrect values to appear. Refer to information at About Latest Weather Observations and please check the disclaimer before using these data.